Time;durP1;ratioP1;P1;durP2;ratioP2;P2;SDS_P1;SDS_P2;PMS_P1;PMS_P2;Temp;Humidity;BMP_temperature;BMP_pressure;BME280_temperature;BME280_humidity;BME280_pressure;Samples;Min_cycle;Max_cycle;Signal;HPM_P1;HPM_P2
2021/07/22 00:01:49;;;;;;;;;;;;;;;-144.99;75.71;52317.66;5085310;28;19931;-76
2021/07/22 00:04:15;;;;;;;;;;;;;;;-144.99;75.72;52309.50;5083563;28;20001;-76
2021/07/22 00:06:42;;;;;;;;;;;;;;;-144.99;75.66;52325.81;5085092;28;19933;-75
2021/07/22 00:09:09;;;;;;;;;;;;;;;-144.99;75.67;52329.88;5084881;28;19932;-76
2021/07/22 00:11:36;;;;;;;;;;;;;;;-144.99;75.27;52333.94;5084459;28;19932;-76
2021/07/22 00:14:02;;;;;;;;;;;;;;;-144.99;75.51;52297.25;5082420;28;19939;-76
2021/07/22 00:16:28;;;;;;;;;;;;;;;-144.99;75.49;52350.25;5082992;28;19924;-76
2021/07/22 00:18:54;;;;;;;;;;;;;;;-144.99;75.57;52338.03;5081570;28;19932;-76
2021/07/22 00:21:22;;;;;;;;;;;;;;;-144.99;75.54;52313.56;5083968;28;19924;-75
2021/07/22 00:23:48;;;;;;;;;;;;;;;-144.99;75.15;52280.97;5084665;28;19956;-75
2021/07/22 00:26:16;;;;;;;;;;;;;;;-144.99;75.05;52321.72;5082912;28;19955;-75
2021/07/22 00:28:42;;;;;;;;;;;;;;;-144.99;75.16;52317.66;5080884;28;19955;-76
2021/07/22 00:31:09;;;;;;;;;;;;;;;-144.99;74.96;52344.16;5083914;28;19928;-75
2021/07/22 00:33:35;;;;;;;;;;;;;;;-144.99;74.69;52333.94;5083650;28;19956;-76
2021/07/22 00:36:06;;;;;;;;;;;;;;;-144.99;74.83;52313.56;5084822;28;20424;-75
2021/07/22 00:38:32;;;;;;;;;;;;;;;-144.99;74.56;52325.81;5082416;28;19932;-76
2021/07/22 00:40:59;;;;;;;;;;;;;;;-144.99;74.25;52305.41;5084213;28;19928;-75
2021/07/22 00:43:27;;;;;;;;;;;;;;;-144.99;74.09;52301.34;5079169;28;20359;-75
2021/07/22 00:45:53;;;;;;;;;;;;;;;-144.99;74.09;52297.25;5089348;28;19935;-75
2021/07/22 00:48:19;;;;;;;;;;;;;;;-144.99;74.20;52301.34;5077732;28;19924;-75
2021/07/22 00:50:46;;;;;;;;;;;;;;;-144.99;74.27;52321.72;5087117;28;20332;-75
2021/07/22 00:53:12;;;;;;;;;;;;;;;-144.99;74.15;52301.34;5079118;28;19999;-78
2021/07/22 00:55:38;;;;;;;;;;;;;;;-144.99;74.25;52289.13;5086123;28;20089;-78
2021/07/22 00:58:05;;;;;;;;;;;;;;;-144.99;74.29;52297.25;5079313;28;19932;-77
2021/07/22 01:00:32;;;;;;;;;;;;;;;-144.99;74.39;52338.03;5085852;28;19928;-75
2021/07/22 01:02:59;;;;;;;;;;;;;;;-144.99;74.37;52276.88;5089624;28;19935;-77
2021/07/22 01:05:25;;;;;;;;;;;;;;;-144.99;74.36;52331.91;5089417;28;19975;-77
2021/07/22 01:07:51;;;;;;;;;;;;;;;-144.99;74.43;52325.81;5089227;28;20103;-76
2021/07/22 01:10:18;;;;;;;;;;;;;;;-144.99;74.59;52352.28;5084698;28;19924;-76
2021/07/22 01:12:44;;;;;;;;;;;;;;;-144.99;74.92;52305.41;5076453;28;20395;-76
2021/07/22 01:15:11;;;;;;;;;;;;;;;-144.99;75.24;52333.94;5088617;28;19928;-76
2021/07/22 01:17:42;;;;;;;;;;;;;;;-144.99;75.12;52366.56;5088763;28;19931;-76
2021/07/22 01:20:12;;;;;;;;;;;;;;;-144.99;74.92;52313.56;5089395;28;19924;-75
2021/07/22 01:22:38;;;;;;;;;;;;;;;-144.99;74.89;52338.03;5090341;28;19928;-76
2021/07/22 01:25:05;;;;;;;;;;;;;;;-144.99;74.82;52329.88;5076941;28;19924;-76
2021/07/22 01:27:32;;;;;;;;;;;;;;;-144.99;74.87;52342.09;5086242;28;19969;-76
2021/07/22 01:29:58;;;;;;;;;;;;;;;-144.99;74.80;52340.06;5086711;28;20090;-76
2021/07/22 01:32:24;;;;;;;;;;;;;;;-144.99;74.75;52338.03;5087902;28;19940;-77
2021/07/22 01:34:50;;;;;;;;;;;;;;;-144.99;74.55;52358.41;5087290;28;19932;-77
2021/07/22 01:37:18;;;;;;;;;;;;;;;-144.99;74.74;52325.81;5083732;28;19928;-77
2021/07/22 01:39:44;;;;;;;;;;;;;;;-144.99;75.07;52309.50;5085357;28;20094;-76
2021/07/22 01:42:11;;;;;;;;;;;;;;;-144.99;75.33;52313.56;5086035;28;19924;-76
2021/07/22 01:44:37;;;;;;;;;;;;;;;-144.99;75.15;52305.41;5083293;28;19928;-77
2021/07/22 01:47:04;;;;;;;;;;;;;;;-144.99;75.18;52309.50;5087581;28;20472;-76
2021/07/22 01:49:30;;;;;;;;;;;;;;;-144.99;75.13;52309.50;5084047;28;20294;-75
2021/07/22 01:51:57;;;;;;;;;;;;;;;-144.99;75.20;52364.53;5080669;28;19932;-77
2021/07/22 01:54:24;;;;;;;;;;;;;;;-144.99;74.98;52321.72;5080606;28;19947;-77
2021/07/22 01:56:51;;;;;;;;;;;;;;;-144.99;75.26;52317.66;5088925;28;19939;-77
2021/07/22 01:59:17;;;;;;;;;;;;;;;-144.99;75.12;52342.09;5085533;28;19924;-77
2021/07/22 02:01:43;;;;;;;;;;;;;;;-144.99;75.07;52323.75;5090004;28;19928;-77
2021/07/22 02:04:09;;;;;;;;;;;;;;;-144.99;75.01;52336.00;5086732;28;19935;-76
2021/07/22 02:06:36;;;;;;;;;;;;;;;-144.99;74.92;52317.66;5090152;28;19976;-77
2021/07/22 02:09:02;;;;;;;;;;;;;;;-144.99;75.33;52321.72;5086645;28;19925;-76
2021/07/22 02:11:30;;;;;;;;;;;;;;;-144.99;75.39;52321.72;5086219;28;19924;-77
2021/07/22 02:13:56;;;;;;;;;;;;;;;-144.99;75.58;52327.84;5088808;28;20302;-76
2021/07/22 02:16:22;;;;;;;;;;;;;;;-144.99;75.79;52342.09;5087922;28;19924;-77
2021/07/22 02:18:49;;;;;;;;;;;;;;;-144.99;75.96;52301.34;5089155;28;20322;-76
2021/07/22 02:21:15;;;;;;;;;;;;;;;-144.99;76.02;52338.03;5090590;28;19939;-77
2021/07/22 02:23:42;;;;;;;;;;;;;;;-144.99;75.90;52342.09;5087616;28;19928;-76
2021/07/22 02:26:09;;;;;;;;;;;;;;;-144.99;76.06;52358.41;5087406;28;19932;-76
2021/07/22 02:28:37;;;;;;;;;;;;;;;-144.99;76.11;52295.22;5086948;28;19924;-76
2021/07/22 02:31:03;;;;;;;;;;;;;;;-144.99;76.55;52305.41;5088453;28;19924;-76
2021/07/22 02:33:29;;;;;;;;;;;;;;;-144.99;76.58;52358.41;5085922;28;19924;-75
2021/07/22 02:35:56;;;;;;;;;;;;;;;-144.99;76.77;52368.59;5084545;28;19935;-77
2021/07/22 02:38:22;;;;;;;;;;;;;;;-144.99;77.03;52346.19;5111172;22;20006;-74
2021/07/22 02:40:49;;;;;;;;;;;;;;;-144.99;77.16;52309.50;5078211;28;20398;-77
2021/07/22 02:43:15;;;;;;;;;;;;;;;-144.99;77.16;52366.56;5082607;28;19924;-77
2021/07/22 02:45:43;;;;;;;;;;;;;;;-144.99;77.01;52313.56;5080198;28;20115;-77
2021/07/22 02:48:09;;;;;;;;;;;;;;;-144.99;76.82;52313.56;5080457;28;19928;-78
2021/07/22 02:50:35;;;;;;;;;;;;;;;-144.99;76.70;52362.50;5076796;28;19928;-78
2021/07/22 02:53:02;;;;;;;;;;;;;;;-144.99;76.88;52272.81;5081483;28;20001;-77
2021/07/22 02:55:28;;;;;;;;;;;;;;;-144.99;76.86;52309.50;5081772;28;19928;-77
2021/07/22 02:57:55;;;;;;;;;;;;;;;-144.99;76.84;52325.81;5079899;28;19928;-77
2021/07/22 03:00:21;;;;;;;;;;;;;;;-144.99;77.10;52325.81;5083911;28;19939;-76
2021/07/22 03:02:49;;;;;;;;;;;;;;;-144.99;77.37;52338.03;5069555;28;19940;-78
2021/07/22 03:05:15;;;;;;;;;;;;;;;-144.99;77.75;52346.19;5076144;28;20299;-77
2021/07/22 03:07:44;;;;;;;;;;;;;;;-144.99;77.97;52331.91;5071666;28;20259;-76
2021/07/22 03:10:11;;;;;;;;;;;;;;;-144.99;77.95;52338.03;5076737;28;19928;-77
2021/07/22 03:12:37;;;;;;;;;;;;;;;-144.99;78.38;52333.94;5074199;28;20311;-77
2021/07/22 03:15:04;;;;;;;;;;;;;;;-144.99;78.27;52342.09;5080776;28;19928;-76
2021/07/22 03:17:30;;;;;;;;;;;;;;;-144.99;78.43;52301.34;5076337;28;19924;-76
2021/07/22 03:19:57;;;;;;;;;;;;;;;-144.99;78.33;52346.19;5076160;28;19924;-77
2021/07/22 03:22:24;;;;;;;;;;;;;;;-144.99;78.22;52348.22;5082656;28;20471;-80
2021/07/22 03:24:51;;;;;;;;;;;;;;;-144.99;78.22;52336.00;5074988;28;19929;-77
2021/07/22 03:27:18;;;;;;;;;;;;;;;-144.99;78.65;52325.81;5077275;28;20380;-78
2021/07/22 03:29:44;;;;;;;;;;;;;;;-144.99;78.87;52301.34;5076916;28;20391;-79
2021/07/22 03:32:12;;;;;;;;;;;;;;;-144.99;79.17;52309.50;5072004;28;19928;-78
2021/07/22 03:34:38;;;;;;;;;;;;;;;-144.99;78.91;52338.03;5074231;28;20347;-78
2021/07/22 03:37:06;;;;;;;;;;;;;;;-144.99;78.89;52368.59;5076346;28;19932;-79
2021/07/22 03:39:33;;;;;;;;;;;;;;;-144.99;78.95;52270.78;5072494;28;20426;-74
2021/07/22 03:41:59;;;;;;;;;;;;;;;-144.99;78.91;52346.19;5071615;28;20308;-79
2021/07/22 03:44:26;;;;;;;;;;;;;;;-144.99;78.99;52348.22;5075711;28;19936;-75
2021/07/22 03:46:52;;;;;;;;;;;;;;;-144.99;78.92;52297.25;5074421;28;19924;-75
2021/07/22 03:49:18;;;;;;;;;;;;;;;-144.99;79.12;52329.88;5071945;28;20267;-77
2021/07/22 03:51:44;;;;;;;;;;;;;;;-144.99;79.30;52317.66;5078470;28;20094;-78
2021/07/22 03:54:13;;;;;;;;;;;;;;;-144.99;78.78;52319.69;5077410;28;19924;-77
2021/07/22 03:56:40;;;;;;;;;;;;;;;-144.99;78.82;52323.75;5077490;28;19924;-78
2021/07/22 03:59:06;;;;;;;;;;;;;;;-144.99;78.79;52382.88;5077123;28;19928;-76
2021/07/22 04:01:33;;;;;;;;;;;;;;;-144.99;78.79;52313.56;5077261;28;19932;-76
2021/07/22 04:03:59;;;;;;;;;;;;;;;-144.99;78.86;52340.06;5079027;28;20711;-76
2021/07/22 04:06:26;;;;;;;;;;;;;;;-144.99;78.92;52338.03;5076277;28;19924;-77
2021/07/22 04:08:52;;;;;;;;;;;;;;;-144.99;78.69;52342.09;5086491;28;20184;-77
2021/07/22 04:11:20;;;;;;;;;;;;;;;-144.99;78.24;52342.09;5083520;28;19944;-75
2021/07/22 04:13:46;;;;;;;;;;;;;;;-144.99;78.57;52338.03;5083595;28;19924;-77
2021/07/22 04:16:12;;;;;;;;;;;;;;;-144.99;78.93;52309.50;5084995;28;20022;-78
2021/07/22 04:18:39;;;;;;;;;;;;;;;-144.99;79.05;52331.91;5083881;28;19931;-79
2021/07/22 04:21:05;;;;;;;;;;;;;;;-144.99;79.23;52340.06;5084319;28;20459;-79
2021/07/22 04:23:31;;;;;;;;;;;;;;;-144.99;79.47;52329.88;5083237;28;19931;-73
2021/07/22 04:25:57;;;;;;;;;;;;;;;-144.99;79.78;52350.25;5083719;28;20394;-72
2021/07/22 04:28:25;;;;;;;;;;;;;;;-144.99;79.64;52333.94;5079483;28;20377;-73
2021/07/22 04:31:09;;;;;;;;;;;;;;;-144.99;80.17;52315.59;5082356;28;19924;-74
2021/07/22 04:33:35;;;;;;;;;;;;;;;-144.99;79.80;52346.19;5080287;28;20061;-74
2021/07/22 04:36:02;;;;;;;;;;;;;;;-144.99;79.67;52299.31;5083707;28;19935;-73
2021/07/22 04:38:28;;;;;;;;;;;;;;;-144.99;79.83;52293.19;5081726;28;19924;-73
2021/07/22 04:40:55;;;;;;;;;;;;;;;-144.99;79.95;52301.34;5083424;28;20690;-72
2021/07/22 04:43:21;;;;;;;;;;;;;;;-144.99;79.92;52333.94;5082528;28;19928;-72
2021/07/22 04:45:48;;;;;;;;;;;;;;;-144.99;80.06;52327.84;5081985;28;19954;-73
2021/07/22 04:48:15;;;;;;;;;;;;;;;-144.99;79.19;52333.94;5080311;28;20348;-73
2021/07/22 04:50:41;;;;;;;;;;;;;;;-144.99;78.96;52338.03;5079104;28;20143;-73
2021/07/22 04:53:07;;;;;;;;;;;;;;;-144.99;78.65;52321.72;5078568;28;19929;-72
2021/07/22 04:55:34;;;;;;;;;;;;;;;-144.99;79.30;52313.56;5083035;28;19939;-73
2021/07/22 04:58:00;;;;;;;;;;;;;;;-144.99;79.56;52293.19;5078651;28;20322;-72
2021/07/22 05:00:27;;;;;;;;;;;;;;;-144.99;79.81;52346.19;5083584;28;20445;-74
2021/07/22 05:02:58;;;;;;;;;;;;;;;-144.99;79.97;52280.97;5079087;28;19950;-73
2021/07/22 05:05:24;;;;;;;;;;;;;;;-144.99;80.35;52338.03;5081969;28;20023;-72
2021/07/22 05:07:50;;;;;;;;;;;;;;;-144.99;79.22;52289.13;5082748;28;19935;-72
2021/07/22 05:10:17;;;;;;;;;;;;;;;-144.99;78.25;52327.84;5080232;28;20005;-71
2021/07/22 05:12:43;;;;;;;;;;;;;;;-144.99;77.78;52311.53;5080818;28;19935;-71
2021/07/22 05:15:10;;;;;;;;;;;;;;;-144.99;77.67;52309.50;5082862;28;19931;-70
2021/07/22 05:17:36;;;;;;;;;;;;;;;-144.99;77.92;52305.41;4370421;28;10020714;-73
2021/07/22 05:20:04;;;;;;;;;;;;;;;-144.99;77.75;52342.09;4733556;28;10000385;-75
2021/07/22 05:22:31;;;;;;;;;;;;;;;-144.99;78.12;52297.25;5102853;28;19928;-73
2021/07/22 05:24:57;;;;;;;;;;;;;;;-144.99;78.45;52313.56;5103027;28;20344;-74
2021/07/22 05:27:23;;;;;;;;;;;;;;;-144.99;78.01;52321.72;5102716;28;20302;-74
2021/07/22 05:29:50;;;;;;;;;;;;;;;-144.99;77.57;52329.88;5075506;28;19950;-76
2021/07/22 05:32:16;;;;;;;;;;;;;;;-144.99;77.35;52327.84;5085347;28;20377;-75
2021/07/22 05:34:42;;;;;;;;;;;;;;;-144.99;76.29;52329.88;5080047;28;19944;-74
2021/07/22 05:37:11;;;;;;;;;;;;;;;-144.99;75.92;52338.03;5079855;28;19936;-75
2021/07/22 05:39:37;;;;;;;;;;;;;;;-144.99;75.30;52289.13;5088392;28;20015;-74
2021/07/22 05:42:04;;;;;;;;;;;;;;;-144.99;75.32;52309.50;5082365;28;19924;-77
2021/07/22 05:44:30;;;;;;;;;;;;;;;-144.99;74.97;52297.25;5089481;28;19924;-74
2021/07/22 05:46:57;;;;;;;;;;;;;;;-144.99;74.51;52315.59;5101219;28;19924;-75
2021/07/22 05:49:23;;;;;;;;;;;;;;;-144.99;74.85;52301.34;5079811;28;20414;-76
2021/07/22 05:51:49;;;;;;;;;;;;;;;-144.99;74.37;52293.19;5079663;28;19928;-76
2021/07/22 05:54:17;;;;;;;;;;;;;;;-144.99;74.27;52305.41;5083706;28;19928;-76
2021/07/22 05:56:43;;;;;;;;;;;;;;;-144.99;73.74;52309.50;5082165;28;19935;-73
2021/07/22 05:59:09;;;;;;;;;;;;;;;-144.99;73.68;52280.97;5080597;28;20444;-76
2021/07/22 06:01:37;;;;;;;;;;;;;;;-144.99;73.51;52289.13;5082260;28;19939;-78
2021/07/22 06:04:03;;;;;;;;;;;;;;;-144.99;73.24;52295.22;5079319;28;19934;-77
2021/07/22 06:06:30;;;;;;;;;;;;;;;-144.99;73.27;52303.38;5081543;28;19924;-77
2021/07/22 06:08:57;;;;;;;;;;;;;;;-144.99;73.18;52289.13;5080913;28;20399;-76
2021/07/22 06:11:25;;;;;;;;;;;;;;;-144.99;72.64;52297.25;5082546;28;19935;-77
2021/07/22 06:13:51;;;;;;;;;;;;;;;-144.99;72.85;52272.81;5081841;28;19977;-74
2021/07/22 06:16:17;;;;;;;;;;;;;;;-144.99;72.43;52309.50;5090614;28;19966;-77
2021/07/22 06:18:44;;;;;;;;;;;;;;;-144.99;72.45;52278.91;5080403;28;20018;-77
2021/07/22 06:21:12;;;;;;;;;;;;;;;-144.99;71.91;52309.50;5080916;28;19936;-76
2021/07/22 06:23:38;;;;;;;;;;;;;;;-144.99;72.00;52301.34;5081670;28;19928;-75
2021/07/22 06:26:05;;;;;;;;;;;;;;;-144.99;71.48;52280.97;5081952;28;20307;-76
2021/07/22 06:28:32;;;;;;;;;;;;;;;-144.99;71.01;52325.81;5078425;28;19962;-77
2021/07/22 06:31:00;;;;;;;;;;;;;;;-144.99;70.73;52305.41;5065031;28;19939;-78
2021/07/22 06:33:26;;;;;;;;;;;;;;;-144.99;70.51;52303.38;5081625;28;19928;-77
2021/07/22 06:35:53;;;;;;;;;;;;;;;-144.99;70.19;52315.59;5082669;28;20340;-77
2021/07/22 06:38:19;;;;;;;;;;;;;;;-144.99;69.42;52297.25;5086710;28;20395;-77
2021/07/22 06:40:45;;;;;;;;;;;;;;;-144.99;69.21;52301.34;5081420;28;20294;-76
2021/07/22 06:43:12;;;;;;;;;;;;;;;-144.99;69.71;52321.72;5086024;28;19924;-76
2021/07/22 06:45:41;;;;;;;;;;;;;;;-144.99;69.55;52289.13;5103957;28;19930;-77
2021/07/22 06:48:07;;;;;;;;;;;;;;;-144.99;69.24;52305.41;5106007;28;19934;-78
2021/07/22 06:50:34;;;;;;;;;;;;;;;-144.99;68.74;52301.34;5087785;28;19927;-77
2021/07/22 06:53:02;;;;;;;;;;;;;;;-144.99;68.63;52303.38;5084712;28;19928;-72
2021/07/22 06:55:28;;;;;;;;;;;;;;;-144.99;68.16;52248.34;5091667;28;19953;-77
2021/07/22 06:57:54;;;;;;;;;;;;;;;-144.99;67.80;52276.88;5085285;28;19939;-77
2021/07/22 07:00:21;;;;;;;;;;;;;;;-144.99;67.28;52293.19;5101980;28;19947;-78
2021/07/22 07:02:48;;;;;;;;;;;;;;;-144.99;66.61;52285.03;5089759;28;19928;-74
2021/07/22 07:05:15;;;;;;;;;;;;;;;-144.99;66.05;52329.88;5083369;28;20421;-77
2021/07/22 07:07:41;;;;;;;;;;;;;;;-144.99;66.23;52260.56;5084944;28;19927;-76
2021/07/22 07:10:08;;;;;;;;;;;;;;;-144.99;66.38;52256.50;5084205;28;19931;-75
2021/07/22 07:12:34;;;;;;;;;;;;;;;-144.99;66.45;52268.72;5085282;28;19983;-75
2021/07/22 07:15:00;;;;;;;;;;;;;;;-144.99;65.47;52244.28;5082662;28;19927;-75
2021/07/22 07:17:27;;;;;;;;;;;;;;;-144.99;64.66;52293.19;5094981;28;19927;-74
2021/07/22 07:19:54;;;;;;;;;;;;;;;-144.99;63.75;52260.56;5082850;28;19928;-77
2021/07/22 07:22:21;;;;;;;;;;;;;;;-144.99;62.81;52254.47;5085034;28;20259;-76
2021/07/22 07:24:47;;;;;;;;;;;;;;;-144.99;61.63;52258.53;5090129;28;19958;-78
2021/07/22 07:27:13;;;;;;;;;;;;;;;-144.99;61.95;52252.44;5105579;28;19939;-78
2021/07/22 07:29:39;;;;;;;;;;;;;;;-144.99;62.02;52252.44;5075520;28;20208;-74
2021/07/22 07:32:06;;;;;;;;;;;;;;;-144.99;61.51;52268.72;5083863;28;19943;-75
2021/07/22 07:34:32;;;;;;;;;;;;;;;-144.99;61.30;52262.63;5082009;28;19935;-77
2021/07/22 07:37:00;;;;;;;;;;;;;;;-144.99;61.19;52244.28;5084428;28;20414;-77
2021/07/22 07:39:26;;;;;;;;;;;;;;;-144.99;61.12;52244.28;5090762;28;19951;-78
2021/07/22 07:41:52;;;;;;;;;;;;;;;-144.99;60.79;52211.66;5083466;28;19924;-77
2021/07/22 07:44:19;;;;;;;;;;;;;;;-144.99;60.75;52215.75;5083844;28;19940;-77
2021/07/22 07:46:45;;;;;;;;;;;;;;;-144.99;60.11;52232.03;5083831;28;19924;-78
2021/07/22 07:49:11;;;;;;;;;;;;;;;-144.99;60.10;52252.44;5080752;28;19928;-75
2021/07/22 07:51:37;;;;;;;;;;;;;;;-144.99;59.73;52260.56;5079431;28;20041;-73
2021/07/22 07:54:05;;;;;;;;;;;;;;;-144.99;59.21;52272.81;5077711;28;20434;-74
2021/07/22 07:56:31;;;;;;;;;;;;;;;-144.99;58.58;52285.03;5071895;28;20506;-77
2021/07/22 07:58:58;;;;;;;;;;;;;;;-144.99;59.05;52264.66;5095839;28;19924;-76
2021/07/22 08:01:27;;;;;;;;;;;;;;;-144.99;58.98;52256.50;5082280;28;20011;-76
2021/07/22 08:03:53;;;;;;;;;;;;;;;-144.99;59.64;52244.28;5073633;28;19924;-74
2021/07/22 08:06:19;;;;;;;;;;;;;;;-144.99;59.75;52270.78;5079902;28;19932;-76
2021/07/22 08:08:46;;;;;;;;;;;;;;;-144.99;59.98;52258.53;5082929;28;20261;-75
2021/07/22 08:11:18;;;;;;;;;;;;;;;-144.99;60.00;52268.72;5083104;28;19935;-74
2021/07/22 08:13:44;;;;;;;;;;;;;;;-144.99;60.06;52276.88;5082720;28;20363;-76
2021/07/22 08:16:14;;;;;;;;;;;;;;;-144.99;60.29;52285.03;5078510;28;19950;-75
2021/07/22 08:18:41;;;;;;;;;;;;;;;-144.99;60.02;52264.66;5074925;28;19933;-78
2021/07/22 08:21:07;;;;;;;;;;;;;;;-144.99;60.42;52278.91;5078667;28;20290;-75
2021/07/22 08:23:33;;;;;;;;;;;;;;;-144.99;60.88;52313.56;5104139;28;19927;-76
2021/07/22 08:26:00;;;;;;;;;;;;;;;-144.99;60.15;52236.13;5104806;28;19935;-78
2021/07/22 08:28:27;;;;;;;;;;;;;;;-144.99;60.15;52256.50;5092890;28;19936;-77
2021/07/22 08:30:54;;;;;;;;;;;;;;;-144.99;60.26;52244.28;5072223;28;19928;-77
2021/07/22 08:33:20;;;;;;;;;;;;;;;-144.99;59.26;52232.03;5084536;28;19924;-77
2021/07/22 08:35:49;;;;;;;;;;;;;;;-144.99;58.59;52236.13;5083339;28;20430;-75
2021/07/22 08:38:15;;;;;;;;;;;;;;;-144.99;57.68;52207.59;5089213;28;20006;-76
2021/07/22 08:40:42;;;;;;;;;;;;;;;-144.99;57.69;52240.19;5083168;28;21134;-77
2021/07/22 08:43:08;;;;;;;;;;;;;;;-144.99;57.64;52242.22;5083087;28;19932;-78
2021/07/22 08:45:36;;;;;;;;;;;;;;;-144.99;57.53;52248.34;5087721;28;20321;-77
2021/07/22 08:48:02;;;;;;;;;;;;;;;-144.99;56.34;52291.16;5103266;28;19927;-76
2021/07/22 08:50:29;;;;;;;;;;;;;;;-144.99;55.92;52289.13;5102957;28;19934;-78
2021/07/22 08:52:55;;;;;;;;;;;;;;;-144.99;56.36;52219.81;5077111;28;20489;-77
2021/07/22 08:55:22;;;;;;;;;;;;;;;-144.99;56.77;52223.88;5115122;22;19928;-78
2021/07/22 08:57:49;;;;;;;;;;;;;;;-144.99;56.32;52230.00;5078422;28;20440;-76
2021/07/22 09:00:16;;;;;;;;;;;;;;;-144.99;56.11;52219.81;5071582;28;19927;-79
2021/07/22 09:02:44;;;;;;;;;;;;;;;-144.99;57.00;52252.44;5088699;28;19928;-78
2021/07/22 09:05:12;;;;;;;;;;;;;;;-144.99;55.49;52278.91;5084935;28;20002;-79
2021/07/22 09:07:38;;;;;;;;;;;;;;;-144.99;55.15;52238.16;5088796;28;20310;-78
2021/07/22 09:10:11;;;;;;;;;;;;;;;-144.99;54.91;52276.88;5086473;28;19928;-78
2021/07/22 09:12:39;;;;;;;;;;;;;;;-144.99;55.73;52268.72;5084057;28;19928;-79
2021/07/22 09:15:06;;;;;;;;;;;;;;;-144.99;56.40;52215.75;5086203;28;19932;-77
2021/07/22 09:17:32;;;;;;;;;;;;;;;-144.99;55.73;52223.88;5090734;28;20468;-78
2021/07/22 09:20:00;;;;;;;;;;;;;;;-144.99;54.10;52244.28;5072505;28;19924;-76
2021/07/22 09:22:33;;;;;;;;;;;;;;;-144.99;53.84;52236.13;5093022;28;19924;-77
2021/07/22 09:24:59;;;;;;;;;;;;;;;-144.99;54.77;52223.88;5090864;28;20371;-78
2021/07/22 09:27:38;;;;;;;;;;;;;;;-144.99;53.56;52197.41;5088150;28;19945;-78
2021/07/22 09:30:06;;;;;;;;;;;;;;;-144.99;53.56;52207.59;5078334;28;19924;-77
2021/07/22 09:32:33;;;;;;;;;;;;;;;-144.99;53.13;52179.06;5095381;28;20029;-77
2021/07/22 09:35:11;;;;;;;;;;;;;;;-144.99;52.64;52187.19;5096637;28;20442;-77
2021/07/22 09:37:38;;;;;;;;;;;;;;;-144.99;50.79;52195.34;5087975;28;19951;-76
2021/07/22 09:40:05;;;;;;;;;;;;;;;-144.99;50.09;52219.81;5093642;28;19928;-79
2021/07/22 09:42:39;;;;;;;;;;;;;;;-144.99;50.60;52211.66;5093569;28;19950;-78
2021/07/22 09:45:11;;;;;;;;;;;;;;;-144.99;50.91;52223.88;5088614;28;19939;-78
2021/07/22 09:47:38;;;;;;;;;;;;;;;-144.99;51.54;52211.66;5085996;28;19935;-76
2021/07/22 09:50:08;;;;;;;;;;;;;;;-144.99;51.27;52203.50;5085668;28;19928;-77
2021/07/22 09:52:36;;;;;;;;;;;;;;;-144.99;50.68;52205.53;5080676;28;19940;-77
2021/07/22 09:55:02;;;;;;;;;;;;;;;-144.99;50.41;52223.88;5080495;28;20307;-77
2021/07/22 09:57:30;;;;;;;;;;;;;;;-144.99;51.37;52232.03;5088498;28;19928;-78
2021/07/22 09:59:57;;;;;;;;;;;;;;;-144.99;50.20;52174.97;5088229;28;20187;-79
2021/07/22 10:02:24;;;;;;;;;;;;;;;-144.99;50.87;52199.44;5085590;28;19935;-78
2021/07/22 10:04:51;;;;;;;;;;;;;;;-144.99;50.69;52219.81;5083534;28;19935;-78
2021/07/22 10:07:19;;;;;;;;;;;;;;;-144.99;49.96;52195.34;5084440;28;19950;-76
2021/07/22 10:09:49;;;;;;;;;;;;;;;-144.99;49.31;52199.44;5083170;28;19931;-79
2021/07/22 10:12:17;;;;;;;;;;;;;;;-144.99;48.35;52207.59;5084906;28;20009;-78
2021/07/22 10:14:44;;;;;;;;;;;;;;;-144.99;47.51;52187.19;5083287;28;19928;-77
2021/07/22 10:17:10;;;;;;;;;;;;;;;-144.99;48.27;52179.06;5088714;28;19932;-79
2021/07/22 10:19:37;;;;;;;;;;;;;;;-144.99;48.31;52211.66;5084708;28;20423;-76
2021/07/22 10:22:04;;;;;;;;;;;;;;;-144.99;48.88;52207.59;5088858;28;19928;-78
2021/07/22 10:24:31;;;;;;;;;;;;;;;-144.99;48.35;52154.59;5099703;28;19934;-79
2021/07/22 10:26:59;;;;;;;;;;;;;;;-144.99;47.24;52146.44;5095979;28;19928;-72
2021/07/22 10:29:26;;;;;;;;;;;;;;;-144.99;48.80;52187.19;5079228;28;19927;-73
2021/07/22 10:31:53;;;;;;;;;;;;;;;-144.99;49.27;52191.28;5087895;28;19982;-74
2021/07/22 10:34:20;;;;;;;;;;;;;;;-144.99;49.11;52191.28;5084202;28;19932;-73
2021/07/22 10:36:48;;;;;;;;;;;;;;;-144.99;48.13;52146.44;5086216;28;19989;-73
2021/07/22 10:39:17;;;;;;;;;;;;;;;-144.99;48.71;52191.28;5083301;28;19932;-72
2021/07/22 10:41:44;;;;;;;;;;;;;;;-144.99;48.46;52166.81;5088685;28;20314;-73
2021/07/22 10:44:25;;;;;;;;;;;;;;;-144.99;47.79;52113.84;5086828;28;19928;-74
2021/07/22 10:46:53;;;;;;;;;;;;;;;-144.99;47.72;52181.09;5084555;28;19931;-73
2021/07/22 10:49:20;;;;;;;;;;;;;;;-144.99;46.49;52103.66;5076507;28;19967;-74
2021/07/22 10:51:46;;;;;;;;;;;;;;;-144.99;45.84;52077.16;5076279;28;19935;-74
2021/07/22 10:54:27;;;;;;;;;;;;;;;-144.99;45.96;52040.47;5077564;28;19928;-75
2021/07/22 10:56:54;;;;;;;;;;;;;;;-144.99;46.28;52126.06;5082767;28;19952;-74
2021/07/22 10:59:40;;;;;;;;;;;;;;;-144.99;45.30;52172.94;5085481;28;19966;-75
2021/07/22 11:02:08;;;;;;;;;;;;;;;-144.99;45.69;52111.78;5082927;28;19990;-74
2021/07/22 11:04:40;;;;;;;;;;;;;;;-144.99;44.90;52066.97;5076904;28;19931;-74
2021/07/22 11:07:08;;;;;;;;;;;;;;;-144.99;44.29;52109.75;5086516;28;19932;-76
2021/07/22 11:09:44;;;;;;;;;;;;;;;-144.99;44.15;52036.38;5085280;28;19924;-74
2021/07/22 11:12:10;;;;;;;;;;;;;;;-144.99;45.30;52111.78;5095066;28;19924;-75
2021/07/22 11:14:37;;;;;;;;;;;;;;;-144.99;44.60;52109.75;5088265;28;19924;-75
2021/07/22 11:17:03;;;;;;;;;;;;;;;-144.99;44.20;52032.31;5087990;28;20387;-73
2021/07/22 11:19:31;;;;;;;;;;;;;;;-144.99;44.42;52032.31;5084933;28;19928;-73
2021/07/22 11:21:58;;;;;;;;;;;;;;;-144.99;44.59;52117.91;5086897;28;20375;-73
2021/07/22 11:24:27;;;;;;;;;;;;;;;-144.99;44.06;52036.38;5100400;28;19974;-74
2021/07/22 11:26:57;;;;;;;;;;;;;;;-144.99;42.77;52097.53;5097897;28;19934;-75
2021/07/22 11:29:24;;;;;;;;;;;;;;;-144.99;43.11;52142.38;5089212;28;20031;-76
2021/07/22 11:31:53;;;;;;;;;;;;;;;-144.99;43.86;52130.13;5086775;28;19932;-74
2021/07/22 11:34:27;;;;;;;;;;;;;;;-144.99;43.39;52113.84;5097233;28;19963;-75
2021/07/22 11:36:58;;;;;;;;;;;;;;;-144.99;43.24;52064.91;5100374;28;19928;-73
2021/07/22 11:39:42;;;;;;;;;;;;;;;-144.99;43.20;52064.91;5086447;28;20054;-74
2021/07/22 11:42:10;;;;;;;;;;;;;;;-144.99;42.75;52075.09;5072361;28;19928;-73
2021/07/22 11:44:37;;;;;;;;;;;;;;;-144.99;42.33;52069.00;5086207;28;19928;-73
2021/07/22 11:47:09;;;;;;;;;;;;;;;-144.99;42.56;52117.91;5087070;28;19927;-75
2021/07/22 11:49:36;;;;;;;;;;;;;;;-144.99;42.42;52117.91;5084250;28;20160;-74
2021/07/22 11:52:04;;;;;;;;;;;;;;;-144.99;42.81;52097.53;5086104;28;19936;-74
2021/07/22 11:54:30;;;;;;;;;;;;;;;-144.99;42.74;52101.59;5077429;28;19933;-74
2021/07/22 11:56:57;;;;;;;;;;;;;;;-144.99;43.36;52069.00;5092078;28;19928;-74
2021/07/22 11:59:27;;;;;;;;;;;;;;;-144.99;43.44;52034.34;5083882;28;19928;-74
2021/07/22 12:01:53;;;;;;;;;;;;;;;-144.99;42.75;52020.09;5085415;28;19928;-74
2021/07/22 12:04:24;;;;;;;;;;;;;;;-144.99;42.13;52032.31;5080002;28;19932;-76
2021/07/22 12:06:51;;;;;;;;;;;;;;;-144.99;41.85;52032.31;5086170;28;19974;-74
2021/07/22 12:09:18;;;;;;;;;;;;;;;-144.99;41.27;52044.53;5085416;28;20407;-73
2021/07/22 12:11:45;;;;;;;;;;;;;;;-144.99;41.84;52109.75;5086288;28;19951;-73
2021/07/22 12:14:12;;;;;;;;;;;;;;;-144.99;42.03;52064.91;5083541;28;19928;-74
2021/07/22 12:16:38;;;;;;;;;;;;;;;-144.99;41.12;52134.22;5075839;28;19928;-74
2021/07/22 12:19:05;;;;;;;;;;;;;;;-144.99;41.89;52089.38;5082824;28;19997;-74
2021/07/22 12:21:34;;;;;;;;;;;;;;;-144.99;42.20;52121.97;5085201;28;19928;-73
2021/07/22 12:24:16;;;;;;;;;;;;;;;-144.99;42.49;52138.28;5085412;28;20811;-74
2021/07/22 12:26:44;;;;;;;;;;;;;;;-144.99;42.67;52107.72;5085546;28;19932;-74